Ekofisk, Norvegia

03:44 PM CEST die 22o August, anno 2014 (GMT +0200)
Ekofisk | Change Station
CLOSE
Current Station
Airport
Location: Ekofisk,
Elevation: 10 ft
Nearby Weather Stations

Elev 10 ft 56.55 °N, 3.25 °E | Updated 24 minutes ago

Scattered Clouds
Nubes Dispersae
55 °F
Feels Like 55 °F
N
23
Ventus Variabilis Ventus from Magis Zephyrus quam Aquilo

Hodie
High -- | Low -- °F
--% Chance of Precip.
Yesterday
High -- | Low -- °F
Precip. -- in
6:29 AM 9:08 PM
Waning Crescent, 8% visible
Pressio 29.65 in
Visibilitas 6.2 milia passuum
Clouds Few 1500 ft
Nubes Dispersae 2000 ft
Frigus in quo Ros apparet 50 °F
Umor 82%
Rainfall 0.00 in
Snow Depth Not available.
UV 5 out of 12
Pollen Not available.
Air Quality Not available.
Flu Activity Not available.
METAR ENEK 221320Z 30020KT 9999 FEW015CB SCT020 13/10 Q1004 W15/S4

More Conditions Fewer Conditions

Pressio 29.65 in
Visibilitas 6.2 milia passuum
Clouds Few 1500 ft
Nubes Dispersae 2000 ft
Frigus in quo Ros apparet 50 °F
Umor 82%
Rainfall 0.00 in
Snow Depth Not available.
UV 5 out of 12
Pollen Not available.
Air Quality Not available.
Flu Activity Not available.
METAR ENEK 221320Z 30020KT 9999 FEW015CB SCT020 13/10 Q1004 W15/S4

More Conditions Fewer Conditions

10-Day Weather Forecast

Almanac

Astronomy

Aug. 22, 2014 Rise Set
Actual Time 6:29 AM CEST 9:08 PM CEST
Civil Twilight 5:47 AM CEST 9:50 PM CEST
Nautical Twilight 4:51 AM CEST 10:45 PM CEST
Astronomical Twilight 3:38 AM CEST 11:57 PM CEST
Moon 3:22 AM CEST 7:19 PM CEST
Length Of Visible Light 16h 03m
Length of Day
14h 39m
Tomorrow will be 4m 32s shorter.
Waning Crescent, 8% of the Moon is Illuminated
Hodie
Waning Crescent
Aug 25
New
Sep 2
First Quarter
Sep 8
Full
Sep 15
Last Quarter

Yesterday's Extremes

Country Highs Country Lows

Community

WunderPhotos

Upload Photos

1,746,168 photos uploaded!

Nearby

Snow Depth

Not available.

Earthquake Activity

City Distance Mag. Time & Date
No recent earthquake activity has been reported nearby.
Minimum magnitude displayed is 2.5.

Coastal Water Temperatures

Locus Calor
No Stations Reporting

Nearby Weather Stations